sensor_id;sensor_type;location;lat;lon;timestamp;temperature;humidity
22167;DHT22;11249;52.468;13.776;2023-05-10T00:01:51;10.60;99.90
22167;DHT22;11249;52.468;13.776;2023-05-10T00:04:17;10.50;99.90
22167;DHT22;11249;52.468;13.776;2023-05-10T00:06:44;10.50;99.90
22167;DHT22;11249;52.468;13.776;2023-05-10T00:09:11;10.50;99.90
22167;DHT22;11249;52.468;13.776;2023-05-10T00:11:38;10.40;99.90
22167;DHT22;11249;52.468;13.776;2023-05-10T00:14:04;10.40;99.90
22167;DHT22;11249;52.468;13.776;2023-05-10T00:16:31;10.40;99.90
22167;DHT22;11249;52.468;13.776;2023-05-10T00:18:58;10.40;99.90
22167;DHT22;11249;52.468;13.776;2023-05-10T00:21:25;10.40;99.90
22167;DHT22;11249;52.468;13.776;2023-05-10T00:23:51;10.40;99.90
22167;DHT22;11249;52.468;13.776;2023-05-10T00:26:18;10.30;99.90
22167;DHT22;11249;52.468;13.776;2023-05-10T00:28:45;10.30;99.90
22167;DHT22;11249;52.468;13.776;2023-05-10T00:31:12;10.30;99.90
22167;DHT22;11249;52.468;13.776;2023-05-10T00:33:38;10.20;99.90
22167;DHT22;11249;52.468;13.776;2023-05-10T00:36:05;10.20;99.90
22167;DHT22;11249;52.468;13.776;2023-05-10T00:38:33;10.20;99.90
22167;DHT22;11249;52.468;13.776;2023-05-10T00:41:00;10.20;99.90
22167;DHT22;11249;52.468;13.776;2023-05-10T00:43:27;10.20;99.90
22167;DHT22;11249;52.468;13.776;2023-05-10T00:45:54;10.20;99.90
22167;DHT22;11249;52.468;13.776;2023-05-10T00:48:21;10.20;99.90
22167;DHT22;11249;52.468;13.776;2023-05-10T00:50:48;10.20;99.90
22167;DHT22;11249;52.468;13.776;2023-05-10T00:53:15;10.10;99.90
22167;DHT22;11249;52.468;13.776;2023-05-10T00:55:43;10.10;99.90
22167;DHT22;11249;52.468;13.776;2023-05-10T00:58:10;10.10;99.90
22167;DHT22;11249;52.468;13.776;2023-05-10T01:00:38;10.10;99.90
22167;DHT22;11249;52.468;13.776;2023-05-10T01:03:08;10.10;99.90
22167;DHT22;11249;52.468;13.776;2023-05-10T01:05:34;10.10;99.90
22167;DHT22;11249;52.468;13.776;2023-05-10T01:08:01;10.00;99.90
22167;DHT22;11249;52.468;13.776;2023-05-10T01:10:29;10.10;99.90
22167;DHT22;11249;52.468;13.776;2023-05-10T01:12:57;10.10;99.90
22167;DHT22;11249;52.468;13.776;2023-05-10T01:15:25;10.10;99.90
22167;DHT22;11249;52.468;13.776;2023-05-10T01:17:52;10.10;99.90
22167;DHT22;11249;52.468;13.776;2023-05-10T01:20:19;10.10;99.90
22167;DHT22;11249;52.468;13.776;2023-05-10T01:26:03;10.00;99.90
22167;DHT22;11249;52.468;13.776;2023-05-10T01:34:35;9.90;99.90
22167;DHT22;11249;52.468;13.776;2023-05-10T01:37:09;9.80;99.90
22167;DHT22;11249;52.468;13.776;2023-05-10T01:40:03;9.80;99.90
22167;DHT22;11249;52.468;13.776;2023-05-10T01:42:40;9.70;99.90
22167;DHT22;11249;52.468;13.776;2023-05-10T01:45:26;9.70;99.90
22167;DHT22;11249;52.468;13.776;2023-05-10T01:48:02;9.60;99.90
22167;DHT22;11249;52.468;13.776;2023-05-10T01:50:30;9.70;99.90
22167;DHT22;11249;52.468;13.776;2023-05-10T01:52:59;9.60;99.90
22167;DHT22;11249;52.468;13.776;2023-05-10T01:55:29;9.60;99.90
22167;DHT22;11249;52.468;13.776;2023-05-10T01:58:02;9.50;99.90
22167;DHT22;11249;52.468;13.776;2023-05-10T02:00:30;9.50;99.90
22167;DHT22;11249;52.468;13.776;2023-05-10T02:02:58;9.50;99.90
22167;DHT22;11249;52.468;13.776;2023-05-10T02:05:27;9.50;99.90
22167;DHT22;11249;52.468;13.776;2023-05-10T02:07:56;9.50;99.90
22167;DHT22;11249;52.468;13.776;2023-05-10T02:10:24;9.60;99.90
22167;DHT22;11249;52.468;13.776;2023-05-10T02:12:53;9.50;99.90
22167;DHT22;11249;52.468;13.776;2023-05-10T02:15:23;9.50;99.90
22167;DHT22;11249;52.468;13.776;2023-05-10T02:17:52;9.50;99.90
22167;DHT22;11249;52.468;13.776;2023-05-10T02:20:22;9.50;99.90
22167;DHT22;11249;52.468;13.776;2023-05-10T02:22:52;9.40;99.90
22167;DHT22;11249;52.468;13.776;2023-05-10T02:25:21;9.40;99.90
22167;DHT22;11249;52.468;13.776;2023-05-10T02:27:49;9.40;99.90
22167;DHT22;11249;52.468;13.776;2023-05-10T02:30:18;9.40;99.90
22167;DHT22;11249;52.468;13.776;2023-05-10T02:32:46;9.40;99.90
22167;DHT22;11249;52.468;13.776;2023-05-10T02:35:14;9.30;99.90
22167;DHT22;11249;52.468;13.776;2023-05-10T02:37:42;9.40;99.90
22167;DHT22;11249;52.468;13.776;2023-05-10T02:40:10;9.40;99.90
22167;DHT22;11249;52.468;13.776;2023-05-10T02:42:41;9.40;99.90
22167;DHT22;11249;52.468;13.776;2023-05-10T02:45:12;9.30;99.90
22167;DHT22;11249;52.468;13.776;2023-05-10T02:47:38;9.30;99.90
22167;DHT22;11249;52.468;13.776;2023-05-10T02:50:06;9.30;99.90
22167;DHT22;11249;52.468;13.776;2023-05-10T02:52:40;9.30;99.90
22167;DHT22;11249;52.468;13.776;2023-05-10T02:55:11;9.20;99.90
22167;DHT22;11249;52.468;13.776;2023-05-10T02:57:42;9.20;99.90
22167;DHT22;11249;52.468;13.776;2023-05-10T03:00:09;9.20;99.90
22167;DHT22;11249;52.468;13.776;2023-05-10T03:02:36;9.10;99.90
22167;DHT22;11249;52.468;13.776;2023-05-10T03:05:03;9.10;99.90
22167;DHT22;11249;52.468;13.776;2023-05-10T03:07:30;9.10;99.90
22167;DHT22;11249;52.468;13.776;2023-05-10T03:10:02;9.10;99.90
22167;DHT22;11249;52.468;13.776;2023-05-10T03:13:05;9.10;99.90
22167;DHT22;11249;52.468;13.776;2023-05-10T03:15:42;9.00;99.90
22167;DHT22;11249;52.468;13.776;2023-05-10T03:18:15;9.00;99.90
22167;DHT22;11249;52.468;13.776;2023-05-10T03:20:47;9.00;99.90
22167;DHT22;11249;52.468;13.776;2023-05-10T03:25:46;8.90;99.90
22167;DHT22;11249;52.468;13.776;2023-05-10T03:28:15;8.90;99.90
22167;DHT22;11249;52.468;13.776;2023-05-10T03:30:43;8.90;99.90
22167;DHT22;11249;52.468;13.776;2023-05-10T03:33:10;8.90;99.90
22167;DHT22;11249;52.468;13.776;2023-05-10T03:35:37;8.90;99.90
22167;DHT22;11249;52.468;13.776;2023-05-10T03:38:03;8.80;99.90
22167;DHT22;11249;52.468;13.776;2023-05-10T03:40:30;8.80;99.90
22167;DHT22;11249;52.468;13.776;2023-05-10T03:42:59;8.80;99.90
22167;DHT22;11249;52.468;13.776;2023-05-10T03:45:26;8.80;99.90
22167;DHT22;11249;52.468;13.776;2023-05-10T03:47:53;8.80;99.90
22167;DHT22;11249;52.468;13.776;2023-05-10T03:50:20;8.80;99.90
22167;DHT22;11249;52.468;13.776;2023-05-10T03:52:47;8.80;99.90
22167;DHT22;11249;52.468;13.776;2023-05-10T03:55:14;8.80;99.90
22167;DHT22;11249;52.468;13.776;2023-05-10T03:57:41;8.90;99.90
22167;DHT22;11249;52.468;13.776;2023-05-10T04:00:09;8.90;99.90
22167;DHT22;11249;52.468;13.776;2023-05-10T04:02:36;8.90;99.90
22167;DHT22;11249;52.468;13.776;2023-05-10T04:05:04;8.90;99.90
22167;DHT22;11249;52.468;13.776;2023-05-10T04:07:31;8.90;99.90
22167;DHT22;11249;52.468;13.776;2023-05-10T04:09:57;8.90;99.90
22167;DHT22;11249;52.468;13.776;2023-05-10T04:12:24;8.90;99.90
22167;DHT22;11249;52.468;13.776;2023-05-10T04:14:51;9.00;99.90
22167;DHT22;11249;52.468;13.776;2023-05-10T04:17:17;9.00;99.90
22167;DHT22;11249;52.468;13.776;2023-05-10T04:19:44;9.00;99.90
22167;DHT22;11249;52.468;13.776;2023-05-10T04:22:11;9.00;99.90
22167;DHT22;11249;52.468;13.776;2023-05-10T04:24:38;9.10;99.90
22167;DHT22;11249;52.468;13.776;2023-05-10T04:27:04;9.20;99.90
22167;DHT22;11249;52.468;13.776;2023-05-10T04:29:31;9.20;99.90
22167;DHT22;11249;52.468;13.776;2023-05-10T04:31:58;9.20;99.90
22167;DHT22;11249;52.468;13.776;2023-05-10T04:34:25;9.30;99.90
22167;DHT22;11249;52.468;13.776;2023-05-10T04:36:51;9.30;99.90
22167;DHT22;11249;52.468;13.776;2023-05-10T04:39:18;9.30;99.90
22167;DHT22;11249;52.468;13.776;2023-05-10T04:41:45;9.40;99.90
22167;DHT22;11249;52.468;13.776;2023-05-10T04:44:12;9.50;99.90
22167;DHT22;11249;52.468;13.776;2023-05-10T04:46:38;9.50;99.90
22167;DHT22;11249;52.468;13.776;2023-05-10T04:49:05;9.60;99.90
22167;DHT22;11249;52.468;13.776;2023-05-10T04:51:32;9.60;99.90
22167;DHT22;11249;52.468;13.776;2023-05-10T04:53:59;9.70;99.90
22167;DHT22;11249;52.468;13.776;2023-05-10T04:56:32;9.80;99.90
22167;DHT22;11249;52.468;13.776;2023-05-10T04:58:59;9.80;99.90
22167;DHT22;11249;52.468;13.776;2023-05-10T05:01:26;9.90;99.90
22167;DHT22;11249;52.468;13.776;2023-05-10T05:03:53;9.90;99.90
22167;DHT22;11249;52.468;13.776;2023-05-10T05:06:20;10.00;99.90
22167;DHT22;11249;52.468;13.776;2023-05-10T05:08:51;10.00;99.90
22167;DHT22;11249;52.468;13.776;2023-05-10T05:11:18;10.10;99.90
22167;DHT22;11249;52.468;13.776;2023-05-10T05:13:45;10.10;99.90
22167;DHT22;11249;52.468;13.776;2023-05-10T05:16:12;10.20;99.90
22167;DHT22;11249;52.468;13.776;2023-05-10T05:18:38;10.30;99.90
22167;DHT22;11249;52.468;13.776;2023-05-10T05:21:15;10.30;99.90
22167;DHT22;11249;52.468;13.776;2023-05-10T05:23:43;10.40;99.90
22167;DHT22;11249;52.468;13.776;2023-05-10T05:26:10;10.50;99.90
22167;DHT22;11249;52.468;13.776;2023-05-10T05:28:37;10.60;99.90
22167;DHT22;11249;52.468;13.776;2023-05-10T05:31:05;10.70;99.90
22167;DHT22;11249;52.468;13.776;2023-05-10T05:33:32;10.70;99.90
22167;DHT22;11249;52.468;13.776;2023-05-10T05:36:03;10.80;99.90
22167;DHT22;11249;52.468;13.776;2023-05-10T05:38:31;10.90;99.90
22167;DHT22;11249;52.468;13.776;2023-05-10T05:40:57;11.00;99.90
22167;DHT22;11249;52.468;13.776;2023-05-10T05:43:24;11.10;99.90
22167;DHT22;11249;52.468;13.776;2023-05-10T05:45:55;11.20;99.90
22167;DHT22;11249;52.468;13.776;2023-05-10T05:48:22;11.30;99.90
22167;DHT22;11249;52.468;13.776;2023-05-10T05:50:49;11.50;99.90
22167;DHT22;11249;52.468;13.776;2023-05-10T05:53:15;11.60;99.90
22167;DHT22;11249;52.468;13.776;2023-05-10T05:55:57;11.70;99.90
22167;DHT22;11249;52.468;13.776;2023-05-10T05:58:25;11.80;99.90
22167;DHT22;11249;52.468;13.776;2023-05-10T06:00:52;11.90;99.90
22167;DHT22;11249;52.468;13.776;2023-05-10T06:03:19;12.00;99.90
22167;DHT22;11249;52.468;13.776;2023-05-10T06:05:46;12.10;99.90
22167;DHT22;11249;52.468;13.776;2023-05-10T06:08:12;12.30;99.90
22167;DHT22;11249;52.468;13.776;2023-05-10T06:10:39;12.40;99.90
22167;DHT22;11249;52.468;13.776;2023-05-10T06:13:06;12.50;99.90
22167;DHT22;11249;52.468;13.776;2023-05-10T06:15:33;12.60;99.90
22167;DHT22;11249;52.468;13.776;2023-05-10T06:17:59;12.70;99.90
22167;DHT22;11249;52.468;13.776;2023-05-10T06:20:26;12.80;99.90
22167;DHT22;11249;52.468;13.776;2023-05-10T06:22:53;12.90;99.90
22167;DHT22;11249;52.468;13.776;2023-05-10T06:25:20;13.00;99.90
22167;DHT22;11249;52.468;13.776;2023-05-10T06:27:46;13.20;99.90
22167;DHT22;11249;52.468;13.776;2023-05-10T06:30:19;13.30;99.90
22167;DHT22;11249;52.468;13.776;2023-05-10T06:32:45;13.30;99.90
22167;DHT22;11249;52.468;13.776;2023-05-10T06:35:12;13.50;99.90
22167;DHT22;11249;52.468;13.776;2023-05-10T06:37:39;13.50;99.90
22167;DHT22;11249;52.468;13.776;2023-05-10T06:40:06;13.70;99.90
22167;DHT22;11249;52.468;13.776;2023-05-10T06:42:34;13.80;99.90
22167;DHT22;11249;52.468;13.776;2023-05-10T06:45:00;13.90;99.90
22167;DHT22;11249;52.468;13.776;2023-05-10T06:47:27;14.00;99.90
22167;DHT22;11249;52.468;13.776;2023-05-10T06:49:54;14.10;99.90
22167;DHT22;11249;52.468;13.776;2023-05-10T06:52:21;14.30;99.90
22167;DHT22;11249;52.468;13.776;2023-05-10T06:54:48;14.30;99.90
22167;DHT22;11249;52.468;13.776;2023-05-10T06:57:14;14.40;99.90
22167;DHT22;11249;52.468;13.776;2023-05-10T06:59:57;14.50;99.90
22167;DHT22;11249;52.468;13.776;2023-05-10T07:02:24;14.70;99.90
22167;DHT22;11249;52.468;13.776;2023-05-10T07:04:51;14.70;99.90
22167;DHT22;11249;52.468;13.776;2023-05-10T07:07:18;14.70;99.90
22167;DHT22;11249;52.468;13.776;2023-05-10T07:09:45;14.80;99.90
22167;DHT22;11249;52.468;13.776;2023-05-10T07:12:12;14.80;99.90
22167;DHT22;11249;52.468;13.776;2023-05-10T07:14:41;14.90;99.90
22167;DHT22;11249;52.468;13.776;2023-05-10T07:17:08;14.90;99.90
22167;DHT22;11249;52.468;13.776;2023-05-10T07:19:34;15.00;99.90
22167;DHT22;11249;52.468;13.776;2023-05-10T07:22:01;15.00;99.90
22167;DHT22;11249;52.468;13.776;2023-05-10T07:24:28;15.10;99.90
22167;DHT22;11249;52.468;13.776;2023-05-10T07:26:55;15.10;99.90
22167;DHT22;11249;52.468;13.776;2023-05-10T07:29:22;15.20;99.90
22167;DHT22;11249;52.468;13.776;2023-05-10T07:31:48;15.30;99.90
22167;DHT22;11249;52.468;13.776;2023-05-10T07:34:15;15.40;99.90
22167;DHT22;11249;52.468;13.776;2023-05-10T07:36:42;15.40;99.90
22167;DHT22;11249;52.468;13.776;2023-05-10T07:39:09;15.50;99.90
22167;DHT22;11249;52.468;13.776;2023-05-10T07:41:38;15.60;99.90
22167;DHT22;11249;52.468;13.776;2023-05-10T07:44:06;15.60;99.90
22167;DHT22;11249;52.468;13.776;2023-05-10T07:46:32;15.70;99.90
22167;DHT22;11249;52.468;13.776;2023-05-10T07:48:59;15.80;99.90
22167;DHT22;11249;52.468;13.776;2023-05-10T07:51:26;15.80;99.90
22167;DHT22;11249;52.468;13.776;2023-05-10T07:53:54;15.90;99.90
22167;DHT22;11249;52.468;13.776;2023-05-10T07:56:25;15.90;99.90
22167;DHT22;11249;52.468;13.776;2023-05-10T07:58:54;16.00;99.90
22167;DHT22;11249;52.468;13.776;2023-05-10T08:01:21;16.10;99.90
22167;DHT22;11249;52.468;13.776;2023-05-10T08:03:48;16.20;99.90
22167;DHT22;11249;52.468;13.776;2023-05-10T08:06:16;16.30;99.90
22167;DHT22;11249;52.468;13.776;2023-05-10T08:08:43;16.40;99.90
22167;DHT22;11249;52.468;13.776;2023-05-10T08:11:11;16.50;99.90
22167;DHT22;11249;52.468;13.776;2023-05-10T08:13:38;16.50;99.90
22167;DHT22;11249;52.468;13.776;2023-05-10T08:16:05;16.50;99.90
22167;DHT22;11249;52.468;13.776;2023-05-10T08:18:32;16.60;99.90
22167;DHT22;11249;52.468;13.776;2023-05-10T08:20:58;16.60;99.90
22167;DHT22;11249;52.468;13.776;2023-05-10T08:23:25;16.70;99.90
22167;DHT22;11249;52.468;13.776;2023-05-10T08:25:52;16.80;99.90
22167;DHT22;11249;52.468;13.776;2023-05-10T08:28:19;16.90;99.90
22167;DHT22;11249;52.468;13.776;2023-05-10T08:30:45;17.00;99.90
22167;DHT22;11249;52.468;13.776;2023-05-10T08:33:12;17.00;99.90
22167;DHT22;11249;52.468;13.776;2023-05-10T08:35:39;17.10;99.90
22167;DHT22;11249;52.468;13.776;2023-05-10T08:38:05;17.10;99.90
22167;DHT22;11249;52.468;13.776;2023-05-10T08:40:32;17.20;99.90
22167;DHT22;11249;52.468;13.776;2023-05-10T08:43:06;17.30;99.90
22167;DHT22;11249;52.468;13.776;2023-05-10T08:45:38;17.40;99.90
22167;DHT22;11249;52.468;13.776;2023-05-10T08:48:06;17.50;99.90
22167;DHT22;11249;52.468;13.776;2023-05-10T08:50:36;17.60;99.90
22167;DHT22;11249;52.468;13.776;2023-05-10T08:53:05;17.60;99.90
22167;DHT22;11249;52.468;13.776;2023-05-10T08:55:33;17.70;99.90
22167;DHT22;11249;52.468;13.776;2023-05-10T08:58:00;17.80;99.90
22167;DHT22;11249;52.468;13.776;2023-05-10T09:00:27;17.80;99.90
22167;DHT22;11249;52.468;13.776;2023-05-10T09:02:54;17.90;99.90
22167;DHT22;11249;52.468;13.776;2023-05-10T09:05:21;18.00;99.90
22167;DHT22;11249;52.468;13.776;2023-05-10T09:07:48;18.00;99.90
22167;DHT22;11249;52.468;13.776;2023-05-10T09:10:16;18.00;99.90
22167;DHT22;11249;52.468;13.776;2023-05-10T09:12:43;18.10;99.90
22167;DHT22;11249;52.468;13.776;2023-05-10T09:15:12;18.20;99.90
22167;DHT22;11249;52.468;13.776;2023-05-10T09:17:42;18.30;99.90
22167;DHT22;11249;52.468;13.776;2023-05-10T09:20:10;18.40;99.90
22167;DHT22;11249;52.468;13.776;2023-05-10T09:22:37;18.50;99.90
22167;DHT22;11249;52.468;13.776;2023-05-10T09:25:12;18.50;99.90
22167;DHT22;11249;52.468;13.776;2023-05-10T09:27:41;18.50;99.90
22167;DHT22;11249;52.468;13.776;2023-05-10T09:30:14;18.60;99.90
22167;DHT22;11249;52.468;13.776;2023-05-10T09:32:47;18.70;99.90
22167;DHT22;11249;52.468;13.776;2023-05-10T09:35:16;18.80;99.90
22167;DHT22;11249;52.468;13.776;2023-05-10T09:37:45;18.80;99.90
22167;DHT22;11249;52.468;13.776;2023-05-10T09:40:20;18.90;99.90
22167;DHT22;11249;52.468;13.776;2023-05-10T09:43:01;18.90;99.90
22167;DHT22;11249;52.468;13.776;2023-05-10T09:45:31;19.00;99.90
22167;DHT22;11249;52.468;13.776;2023-05-10T09:48:02;19.00;99.90
22167;DHT22;11249;52.468;13.776;2023-05-10T09:50:30;19.20;99.90
22167;DHT22;11249;52.468;13.776;2023-05-10T09:53:01;19.20;99.90
22167;DHT22;11249;52.468;13.776;2023-05-10T09:58:06;19.40;99.90
22167;DHT22;11249;52.468;13.776;2023-05-10T10:00:39;19.50;99.90
22167;DHT22;11249;52.468;13.776;2023-05-10T10:03:11;19.50;99.90
22167;DHT22;11249;52.468;13.776;2023-05-10T10:05:40;19.60;99.90
22167;DHT22;11249;52.468;13.776;2023-05-10T10:08:10;19.80;99.90
22167;DHT22;11249;52.468;13.776;2023-05-10T10:10:37;19.90;99.90
22167;DHT22;11249;52.468;13.776;2023-05-10T10:13:05;19.90;99.90
22167;DHT22;11249;52.468;13.776;2023-05-10T10:15:33;20.10;99.90
22167;DHT22;11249;52.468;13.776;2023-05-10T10:18:01;20.10;99.90
22167;DHT22;11249;52.468;13.776;2023-05-10T10:20:28;20.20;99.90
22167;DHT22;11249;52.468;13.776;2023-05-10T10:22:55;20.40;99.90
22167;DHT22;11249;52.468;13.776;2023-05-10T10:25:22;20.50;99.90
22167;DHT22;11249;52.468;13.776;2023-05-10T10:30:42;20.90;99.90
22167;DHT22;11249;52.468;13.776;2023-05-10T10:33:36;21.10;99.90
22167;DHT22;11249;52.468;13.776;2023-05-10T10:36:05;21.10;99.90
22167;DHT22;11249;52.468;13.776;2023-05-10T10:41:33;21.50;99.90
22167;DHT22;11249;52.468;13.776;2023-05-10T10:47:00;21.80;99.90
22167;DHT22;11249;52.468;13.776;2023-05-10T10:49:32;22.10;99.90
22167;DHT22;11249;52.468;13.776;2023-05-10T10:52:21;22.40;99.90
22167;DHT22;11249;52.468;13.776;2023-05-10T10:55:12;22.70;99.90
22167;DHT22;11249;52.468;13.776;2023-05-10T10:57:49;22.90;99.90
22167;DHT22;11249;52.468;13.776;2023-05-10T11:00:31;23.10;99.90
22167;DHT22;11249;52.468;13.776;2023-05-10T11:03:06;23.30;99.90
22167;DHT22;11249;52.468;13.776;2023-05-10T11:05:44;23.40;99.90
22167;DHT22;11249;52.468;13.776;2023-05-10T11:08:27;23.60;99.90
22167;DHT22;11249;52.468;13.776;2023-05-10T11:13:41;24.10;99.90
22167;DHT22;11249;52.468;13.776;2023-05-10T11:18:38;24.70;99.90
22167;DHT22;11249;52.468;13.776;2023-05-10T11:21:05;24.60;99.90
22167;DHT22;11249;52.468;13.776;2023-05-10T11:23:33;24.50;99.90
22167;DHT22;11249;52.468;13.776;2023-05-10T11:26:13;24.40;99.90
22167;DHT22;11249;52.468;13.776;2023-05-10T11:28:45;24.60;99.90
22167;DHT22;11249;52.468;13.776;2023-05-10T11:31:16;25.00;99.90
22167;DHT22;11249;52.468;13.776;2023-05-10T11:33:52;25.20;99.90
22167;DHT22;11249;52.468;13.776;2023-05-10T11:36:27;25.30;99.90
22167;DHT22;11249;52.468;13.776;2023-05-10T11:38:55;25.50;99.90
22167;DHT22;11249;52.468;13.776;2023-05-10T11:41:23;25.70;99.90
22167;DHT22;11249;52.468;13.776;2023-05-10T11:43:52;26.00;99.90
22167;DHT22;11249;52.468;13.776;2023-05-10T11:46:20;26.20;99.90
22167;DHT22;11249;52.468;13.776;2023-05-10T11:48:53;26.30;99.90
22167;DHT22;11249;52.468;13.776;2023-05-10T11:51:24;26.40;99.90
22167;DHT22;11249;52.468;13.776;2023-05-10T11:53:53;26.70;99.90
22167;DHT22;11249;52.468;13.776;2023-05-10T11:56:20;26.60;99.90
22167;DHT22;11249;52.468;13.776;2023-05-10T11:58:55;27.00;99.90
22167;DHT22;11249;52.468;13.776;2023-05-10T12:01:26;27.00;99.90
22167;DHT22;11249;52.468;13.776;2023-05-10T12:03:55;27.30;99.90
22167;DHT22;11249;52.468;13.776;2023-05-10T12:06:29;27.70;99.90
22167;DHT22;11249;52.468;13.776;2023-05-10T12:08:58;27.60;99.80
22167;DHT22;11249;52.468;13.776;2023-05-10T12:11:26;27.50;99.10
22167;DHT22;11249;52.468;13.776;2023-05-10T12:13:54;28.00;98.80
22167;DHT22;11249;52.468;13.776;2023-05-10T12:16:26;27.90;98.50
22167;DHT22;11249;52.468;13.776;2023-05-10T12:18:57;27.90;98.20
22167;DHT22;11249;52.468;13.776;2023-05-10T12:21:24;28.00;98.90
22167;DHT22;11249;52.468;13.776;2023-05-10T12:23:53;28.20;96.90
22167;DHT22;11249;52.468;13.776;2023-05-10T12:26:24;28.20;97.00
22167;DHT22;11249;52.468;13.776;2023-05-10T12:28:53;28.30;96.80
22167;DHT22;11249;52.468;13.776;2023-05-10T12:31:20;28.10;95.90
22167;DHT22;11249;52.468;13.776;2023-05-10T12:33:47;28.00;95.10
22167;DHT22;11249;52.468;13.776;2023-05-10T12:36:16;28.00;95.30
22167;DHT22;11249;52.468;13.776;2023-05-10T12:38:46;28.40;94.80
22167;DHT22;11249;52.468;13.776;2023-05-10T12:41:16;28.50;94.60
22167;DHT22;11249;52.468;13.776;2023-05-10T12:43:43;28.80;94.50
22167;DHT22;11249;52.468;13.776;2023-05-10T12:46:11;29.00;94.00
22167;DHT22;11249;52.468;13.776;2023-05-10T12:48:39;29.00;93.30
22167;DHT22;11249;52.468;13.776;2023-05-10T12:51:06;29.00;93.20
22167;DHT22;11249;52.468;13.776;2023-05-10T12:53:36;29.20;93.30
22167;DHT22;11249;52.468;13.776;2023-05-10T12:56:03;28.70;92.20
22167;DHT22;11249;52.468;13.776;2023-05-10T12:58:30;29.10;93.10
22167;DHT22;11249;52.468;13.776;2023-05-10T13:01:02;29.60;93.30
22167;DHT22;11249;52.468;13.776;2023-05-10T13:03:29;29.90;91.40
22167;DHT22;11249;52.468;13.776;2023-05-10T13:05:55;29.90;91.40
22167;DHT22;11249;52.468;13.776;2023-05-10T13:08:22;30.30;90.50
22167;DHT22;11249;52.468;13.776;2023-05-10T13:10:49;30.30;90.60
22167;DHT22;11249;52.468;13.776;2023-05-10T13:13:15;30.50;89.60
22167;DHT22;11249;52.468;13.776;2023-05-10T13:15:42;30.50;87.70
22167;DHT22;11249;52.468;13.776;2023-05-10T13:18:09;30.20;85.10
22167;DHT22;11249;52.468;13.776;2023-05-10T13:20:36;30.20;86.70
22167;DHT22;11249;52.468;13.776;2023-05-10T13:23:03;30.20;85.70
22167;DHT22;11249;52.468;13.776;2023-05-10T13:25:29;30.50;86.20
22167;DHT22;11249;52.468;13.776;2023-05-10T13:27:56;30.50;84.50
22167;DHT22;11249;52.468;13.776;2023-05-10T13:30:23;30.70;85.60
22167;DHT22;11249;52.468;13.776;2023-05-10T13:32:50;30.90;83.30
22167;DHT22;11249;52.468;13.776;2023-05-10T13:35:17;31.40;84.10
22167;DHT22;11249;52.468;13.776;2023-05-10T13:37:44;31.20;80.30
22167;DHT22;11249;52.468;13.776;2023-05-10T13:40:10;30.90;81.70
22167;DHT22;11249;52.468;13.776;2023-05-10T13:42:37;30.90;81.20
22167;DHT22;11249;52.468;13.776;2023-05-10T13:45:05;31.10;82.40
22167;DHT22;11249;52.468;13.776;2023-05-10T13:47:31;31.00;81.70
22167;DHT22;11249;52.468;13.776;2023-05-10T13:49:58;31.10;81.30
22167;DHT22;11249;52.468;13.776;2023-05-10T13:52:26;31.60;79.70
22167;DHT22;11249;52.468;13.776;2023-05-10T13:54:52;31.80;79.10
22167;DHT22;11249;52.468;13.776;2023-05-10T13:57:22;31.50;77.30
22167;DHT22;11249;52.468;13.776;2023-05-10T13:59:50;31.40;76.60
22167;DHT22;11249;52.468;13.776;2023-05-10T14:02:16;30.90;76.60
22167;DHT22;11249;52.468;13.776;2023-05-10T14:04:43;31.10;78.20
22167;DHT22;11249;52.468;13.776;2023-05-10T14:07:10;31.50;76.30
22167;DHT22;11249;52.468;13.776;2023-05-10T14:09:36;31.30;76.60
22167;DHT22;11249;52.468;13.776;2023-05-10T14:12:03;31.20;76.60
22167;DHT22;11249;52.468;13.776;2023-05-10T14:14:30;31.30;76.20
22167;DHT22;11249;52.468;13.776;2023-05-10T14:16:57;31.70;78.20
22167;DHT22;11249;52.468;13.776;2023-05-10T14:19:24;31.70;77.00
22167;DHT22;11249;52.468;13.776;2023-05-10T14:21:50;31.20;75.20
22167;DHT22;11249;52.468;13.776;2023-05-10T14:24:18;31.20;77.40
22167;DHT22;11249;52.468;13.776;2023-05-10T14:26:45;31.40;75.80
22167;DHT22;11249;52.468;13.776;2023-05-10T14:29:11;31.20;75.00
22167;DHT22;11249;52.468;13.776;2023-05-10T14:31:39;31.30;75.00
22167;DHT22;11249;52.468;13.776;2023-05-10T14:34:06;31.70;74.90
22167;DHT22;11249;52.468;13.776;2023-05-10T14:36:33;32.10;95.60
22167;DHT22;11249;52.468;13.776;2023-05-10T14:39:00;32.40;93.60
22167;DHT22;11249;52.468;13.776;2023-05-10T14:41:26;32.40;79.80
22167;DHT22;11249;52.468;13.776;2023-05-10T14:43:53;32.20;90.50
22167;DHT22;11249;52.468;13.776;2023-05-10T14:46:20;32.60;93.10
22167;DHT22;11249;52.468;13.776;2023-05-10T14:48:47;32.90;92.40
22167;DHT22;11249;52.468;13.776;2023-05-10T14:51:14;32.80;90.50
22167;DHT22;11249;52.468;13.776;2023-05-10T14:53:40;33.30;90.80
22167;DHT22;11249;52.468;13.776;2023-05-10T14:56:07;33.10;88.70
22167;DHT22;11249;52.468;13.776;2023-05-10T14:58:34;33.00;91.20
22167;DHT22;11249;52.468;13.776;2023-05-10T15:01:00;32.90;84.60
22167;DHT22;11249;52.468;13.776;2023-05-10T15:03:28;32.70;85.30
22167;DHT22;11249;52.468;13.776;2023-05-10T15:05:55;33.00;89.40
22167;DHT22;11249;52.468;13.776;2023-05-10T15:08:24;33.30;85.30
22167;DHT22;11249;52.468;13.776;2023-05-10T15:10:53;33.60;85.50
22167;DHT22;11249;52.468;13.776;2023-05-10T15:13:22;34.10;85.60
22167;DHT22;11249;52.468;13.776;2023-05-10T15:15:48;34.40;87.10
22167;DHT22;11249;52.468;13.776;2023-05-10T15:18:15;34.70;78.70
22167;DHT22;11249;52.468;13.776;2023-05-10T15:20:42;34.90;80.60
22167;DHT22;11249;52.468;13.776;2023-05-10T15:23:08;34.80;80.00
22167;DHT22;11249;52.468;13.776;2023-05-10T15:25:35;34.10;82.40
22167;DHT22;11249;52.468;13.776;2023-05-10T15:28:04;34.10;79.00
22167;DHT22;11249;52.468;13.776;2023-05-10T15:30:31;34.10;82.10
22167;DHT22;11249;52.468;13.776;2023-05-10T15:32:58;33.90;82.40
22167;DHT22;11249;52.468;13.776;2023-05-10T15:35:26;33.90;80.00
22167;DHT22;11249;52.468;13.776;2023-05-10T15:37:52;33.70;76.00
22167;DHT22;11249;52.468;13.776;2023-05-10T15:40:19;33.30;70.60
22167;DHT22;11249;52.468;13.776;2023-05-10T15:42:46;33.00;70.30
22167;DHT22;11249;52.468;13.776;2023-05-10T15:45:13;32.70;70.00
22167;DHT22;11249;52.468;13.776;2023-05-10T15:47:39;32.30;70.40
22167;DHT22;11249;52.468;13.776;2023-05-10T15:50:08;31.50;70.40
22167;DHT22;11249;52.468;13.776;2023-05-10T15:52:35;31.30;72.10
22167;DHT22;11249;52.468;13.776;2023-05-10T15:55:02;31.00;73.10
22167;DHT22;11249;52.468;13.776;2023-05-10T15:57:29;30.70;72.80